George Burrows — WAR2530 — position and weather

sailwx.info

Track history (hours):
 
Tides and Currents Weather Stations Pressure Air Temp Water Temp Dewpoint Dewpoint Depression Visibility Wind Speed Wind Dir Waves Ship Positions

George Burrows

Owner: SPEARIN PRESTON & BURROWS INC, NEW YORK, NY. More information available from US FCC via Universal Licensing System and Coast Guard Vessel Documentation Center.

Last reported at 2018-Jan-20 10:49 UTC. Time now 2018-Jan-20 23:19 UTC.
Position N 36°44' W 076°15'.

Length 20 m; draft 3 m.

Type: Tug. MMSI: 338031889.

Date/timePositionNaut miles runAvg speedWind from/ knotsBaromVisibWave heightAir tempDewpointWater temp
2018-Jan-20 10:49N 36°44' W 076°15'1 1.7
2018-Jan-20 10:30N 36°44' W 076°15'3 6.2
2018-Jan-20 10:00N 36°46' W 076°18'2 4.1
2018-Jan-20 09:30N 36°48' W 076°18'4 7.4
2018-Jan-20 09:00N 36°51' W 076°19'6 0.2
2018-Jan-19 07:17N 36°57' W 076°21'2 8.6
2018-Jan-19 07:00N 36°54' W 076°20'4 8.4
2018-Jan-19 06:30N 36°51' W 076°18'4 7.7
2018-Jan-19 06:00N 36°47' W 076°18'2 3.2
2018-Jan-19 05:30N 36°45' W 076°18'3 5.7
2018-Jan-19 04:58N 36°44' W 076°15'0 0.3
2018-Jan-19 04:30N 36°44' W 076°15'0 0.0
2018-Jan-19 04:00N 36°44' W 076°15'0 0.0
2018-Jan-19 03:30N 36°44' W 076°15'0 0.0
2018-Jan-19 03:00N 36°44' W 076°15'0 0.0
2018-Jan-19 02:30N 36°44' W 076°15'0 0.0
2018-Jan-19 02:00N 36°44' W 076°15'0 0.0
2018-Jan-19 01:30N 36°44' W 076°15'0 0.0
2018-Jan-19 01:00N 36°44' W 076°15'0 0.0
2018-Jan-19 00:30N 36°44' W 076°15'0 0.0
2018-Jan-19 00:01N 36°44' W 076°15'0 0.0
2018-Jan-18 23:30N 36°44' W 076°15'0 0.0
2018-Jan-18 23:00N 36°44' W 076°15'0 0.0
2018-Jan-18 22:29N 36°44' W 076°15'0 0.0
2018-Jan-18 22:00N 36°44' W 076°15'0 0.0
2018-Jan-18 21:30N 36°44' W 076°15'0 0.0
2018-Jan-18 21:00N 36°44' W 076°15'0 0.0
2018-Jan-18 20:30N 36°44' W 076°15'0 0.0
2018-Jan-18 20:00N 36°44' W 076°15'0 0.0
2018-Jan-18 19:30N 36°44' W 076°15'0 0.0
2018-Jan-18 19:00N 36°44' W 076°15'0 0.0
2018-Jan-18 18:30N 36°44' W 076°15'0 0.0
2018-Jan-18 18:00N 36°44' W 076°15'0 0.0
2018-Jan-18 17:30N 36°44' W 076°15'0 0.0
2018-Jan-18 16:58N 36°44' W 076°15'0 0.0
2018-Jan-18 16:30N 36°44' W 076°15'0 0.0
2018-Jan-18 16:00N 36°44' W 076°15'0 0.0
2018-Jan-18 15:19N 36°44' W 076°15'0 0.0
2018-Jan-18 14:59N 36°44' W 076°15'0 0.0
2018-Jan-18 14:30N 36°44' W 076°15'0 0.0
2018-Jan-18 14:00N 36°44' W 076°15'0 0.0
2018-Jan-18 13:30N 36°44' W 076°15'0 0.0
2018-Jan-18 13:00N 36°44' W 076°15'0 0.0
2018-Jan-18 12:30N 36°44' W 076°15'0 0.0
2018-Jan-18 11:57N 36°44' W 076°15'0 0.0
2018-Jan-18 11:31N 36°44' W 076°15'0 0.0
2018-Jan-18 11:00N 36°44' W 076°15'0 0.0
2018-Jan-18 10:29N 36°44' W 076°15'0 0.0
2018-Jan-18 09:59N 36°44' W 076°15'0 0.0
2018-Jan-18 09:28N 36°44' W 076°15'0 0.0
2018-Jan-18 08:58N 36°44' W 076°15'0 0.0
2018-Jan-18 08:29N 36°44' W 076°15'0 0.0
2018-Jan-18 08:00N 36°44' W 076°15'0 0.0
2018-Jan-18 07:29N 36°44' W 076°15'0 0.0
2018-Jan-18 07:00N 36°44' W 076°15'0 0.0
2018-Jan-18 06:30N 36°44' W 076°15'0 0.0
2018-Jan-18 05:56N 36°44' W 076°15'0 0.0
2018-Jan-18 05:30N 36°44' W 076°15'0 0.0
2018-Jan-18 05:00N 36°44' W 076°15'0 0.0
2018-Jan-18 04:30N 36°44' W 076°15'0 0.0
2018-Jan-18 04:00N 36°44' W 076°15'0 0.0
2018-Jan-18 03:30N 36°44' W 076°15'0 0.0
2018-Jan-18 03:00N 36°44' W 076°15'0 0.0
2018-Jan-18 02:30N 36°44' W 076°15'0 0.0
2018-Jan-18 02:00N 36°44' W 076°15'0 0.0
2018-Jan-18 01:30N 36°44' W 076°15'0 0.0
2018-Jan-18 01:00N 36°44' W 076°15'0 0.0
2018-Jan-18 00:00N 36°44' W 076°15'0 0.0
2018-Jan-17 23:57N 36°44' W 076°15'  
2018-Jan-12 15:00N 36°54' W 076°21'1 1.8
2018-Jan-12 14:29N 36°55' W 076°20'1 1.7
2018-Jan-12 14:00N 36°54' W 076°20'0 0.0
2018-Jan-12 12:51N 36°54' W 076°20'0 0.0
2018-Jan-12 12:30N 36°54' W 076°20'1 0.1
2018-Jan-12 04:18N 36°54' W 076°21'1 2.4
2018-Jan-12 04:00N 36°53' W 076°20'4 7.7
2018-Jan-12 03:30N 36°50' W 076°18'3 6.9
2018-Jan-12 03:00N 36°47' W 076°18'3 6.5
2018-Jan-12 02:30N 36°44' W 076°16'1 2.2
2018-Jan-12 02:00N 36°44' W 076°15'0 0.0
2018-Jan-12 01:30N 36°44' W 076°15'0 0.0
2018-Jan-12 00:59N 36°44' W 076°15'0 0.0
2018-Jan-12 00:30N 36°44' W 076°15'0 0.0
2018-Jan-12 00:00N 36°44' W 076°15'0 0.0
2018-Jan-11 23:30N 36°44' W 076°15'0 0.0
2018-Jan-11 23:00N 36°44' W 076°15'0 0.0
2018-Jan-11 22:30N 36°44' W 076°15'0 0.0
2018-Jan-11 22:00N 36°44' W 076°15'0 0.0
2018-Jan-11 21:30N 36°44' W 076°15'0 0.0
2018-Jan-11 21:00N 36°44' W 076°15'0 0.0
2018-Jan-11 20:30N 36°44' W 076°15'0 0.0
2018-Jan-11 19:42N 36°44' W 076°15'0 0.0
2018-Jan-11 19:30N 36°44' W 076°15'0 0.0
2018-Jan-11 19:00N 36°44' W 076°15'0 0.0
2018-Jan-11 18:30N 36°44' W 076°15'0 0.0
2018-Jan-11 18:00N 36°44' W 076°15'0 0.0
2018-Jan-11 17:26N 36°44' W 076°15'0 0.0
2018-Jan-11 16:44N 36°44' W 076°15'0 0.0
2018-Jan-11 16:25N 36°44' W 076°15'0 0.0
2018-Jan-11 15:50N 36°44' W 076°15'0 0.0
2018-Jan-11 15:13N 36°44' W 076°15'0 0.0
2018-Jan-11 14:58N 36°44' W 076°15'0 0.0
2018-Jan-11 14:30N 36°44' W 076°15'0 0.0
2018-Jan-11 14:00N 36°44' W 076°15'0 0.0
2018-Jan-11 13:29N 36°44' W 076°15'0 0.0
2018-Jan-10 21:01N 36°44' W 076°15'0 0.0
2018-Jan-10 20:55N 36°44' W 076°15'0 0.0
2018-Jan-10 20:30N 36°44' W 076°15'0 0.0
2018-Jan-10 20:00N 36°44' W 076°15'0 0.1
2018-Jan-10 19:30N 36°44' W 076°15'0 0.1
2018-Jan-10 19:00N 36°44' W 076°15'0 0.0
2018-Jan-10 18:30N 36°44' W 076°15'0 0.0
2018-Jan-10 18:00N 36°44' W 076°15'0 0.0
2018-Jan-10 17:30N 36°44' W 076°15'0 0.0
2018-Jan-10 17:00N 36°44' W 076°15'0 0.0
2018-Jan-10 16:30N 36°44' W 076°15'0 0.0
2018-Jan-10 16:00N 36°44' W 076°15'0 0.0
2018-Jan-10 15:30N 36°44' W 076°15'0 0.0
2018-Jan-10 15:00N 36°44' W 076°15'0 0.0
2018-Jan-10 14:30N 36°44' W 076°15'  
Track history (hours):
 
Tides and Currents Weather Stations Pressure Air Temp Water Temp Dewpoint Dewpoint Depression Visibility Wind Speed Wind Dir Waves Ship Positions

George Burrows

Owner: SPEARIN PRESTON & BURROWS INC, NEW YORK, NY. More information available from US FCC via Universal Licensing System and Coast Guard Vessel Documentation Center.

Last reported at 2018-Jan-20 10:49 UTC. Time now 2018-Jan-20 23:19 UTC.
Position N 36°44' W 076°15'.

Length 20 m; draft 3 m.

Type: Tug. MMSI: 338031889.

Date/timePositionNaut miles runAvg speedWind from/ knotsBaromVisibWave heightAir tempDewpointWater temp
2018-Jan-20 10:49N 36°44' W 076°15'1 1.7
2018-Jan-20 10:30N 36°44' W 076°15'3 6.2
2018-Jan-20 10:00N 36°46' W 076°18'2 4.1
2018-Jan-20 09:30N 36°48' W 076°18'4 7.4
2018-Jan-20 09:00N 36°51' W 076°19'6 0.2
2018-Jan-19 07:17N 36°57' W 076°21'2 8.6
2018-Jan-19 07:00N 36°54' W 076°20'4 8.4
2018-Jan-19 06:30N 36°51' W 076°18'4 7.7
2018-Jan-19 06:00N 36°47' W 076°18'2 3.2
2018-Jan-19 05:30N 36°45' W 076°18'3 5.7
2018-Jan-19 04:58N 36°44' W 076°15'0 0.3
2018-Jan-19 04:30N 36°44' W 076°15'0 0.0
2018-Jan-19 04:00N 36°44' W 076°15'0 0.0
2018-Jan-19 03:30N 36°44' W 076°15'0 0.0
2018-Jan-19 03:00N 36°44' W 076°15'0 0.0
2018-Jan-19 02:30N 36°44' W 076°15'0 0.0
2018-Jan-19 02:00N 36°44' W 076°15'0 0.0
2018-Jan-19 01:30N 36°44' W 076°15'0 0.0
2018-Jan-19 01:00N 36°44' W 076°15'0 0.0
2018-Jan-19 00:30N 36°44' W 076°15'0 0.0
2018-Jan-19 00:01N 36°44' W 076°15'0 0.0
2018-Jan-18 23:30N 36°44' W 076°15'0 0.0
2018-Jan-18 23:00N 36°44' W 076°15'0 0.0
2018-Jan-18 22:29N 36°44' W 076°15'0 0.0
2018-Jan-18 22:00N 36°44' W 076°15'0 0.0
2018-Jan-18 21:30N 36°44' W 076°15'0 0.0
2018-Jan-18 21:00N 36°44' W 076°15'0 0.0
2018-Jan-18 20:30N 36°44' W 076°15'0 0.0
2018-Jan-18 20:00N 36°44' W 076°15'0 0.0
2018-Jan-18 19:30N 36°44' W 076°15'0 0.0
2018-Jan-18 19:00N 36°44' W 076°15'0 0.0
2018-Jan-18 18:30N 36°44' W 076°15'0 0.0
2018-Jan-18 18:00N 36°44' W 076°15'0 0.0
2018-Jan-18 17:30N 36°44' W 076°15'0 0.0
2018-Jan-18 16:58N 36°44' W 076°15'0 0.0
2018-Jan-18 16:30N 36°44' W 076°15'0 0.0
2018-Jan-18 16:00N 36°44' W 076°15'0 0.0
2018-Jan-18 15:19N 36°44' W 076°15'0 0.0
2018-Jan-18 14:59N 36°44' W 076°15'0 0.0
2018-Jan-18 14:30N 36°44' W 076°15'0 0.0
2018-Jan-18 14:00N 36°44' W 076°15'0 0.0
2018-Jan-18 13:30N 36°44' W 076°15'0 0.0
2018-Jan-18 13:00N 36°44' W 076°15'0 0.0
2018-Jan-18 12:30N 36°44' W 076°15'0 0.0
2018-Jan-18 11:57N 36°44' W 076°15'0 0.0
2018-Jan-18 11:31N 36°44' W 076°15'0 0.0
2018-Jan-18 11:00N 36°44' W 076°15'0 0.0
2018-Jan-18 10:29N 36°44' W 076°15'0 0.0
2018-Jan-18 09:59N 36°44' W 076°15'0 0.0
2018-Jan-18 09:28N 36°44' W 076°15'0 0.0
2018-Jan-18 08:58N 36°44' W 076°15'0 0.0
2018-Jan-18 08:29N 36°44' W 076°15'0 0.0
2018-Jan-18 08:00N 36°44' W 076°15'0 0.0
2018-Jan-18 07:29N 36°44' W 076°15'0 0.0
2018-Jan-18 07:00N 36°44' W 076°15'0 0.0
2018-Jan-18 06:30N 36°44' W 076°15'0 0.0
2018-Jan-18 05:56N 36°44' W 076°15'0 0.0
2018-Jan-18 05:30N 36°44' W 076°15'0 0.0
2018-Jan-18 05:00N 36°44' W 076°15'0 0.0
2018-Jan-18 04:30N 36°44' W 076°15'0 0.0
2018-Jan-18 04:00N 36°44' W 076°15'0 0.0
2018-Jan-18 03:30N 36°44' W 076°15'0 0.0
2018-Jan-18 03:00N 36°44' W 076°15'0 0.0
2018-Jan-18 02:30N 36°44' W 076°15'0 0.0
2018-Jan-18 02:00N 36°44' W 076°15'0 0.0
2018-Jan-18 01:30N 36°44' W 076°15'0 0.0
2018-Jan-18 01:00N 36°44' W 076°15'0 0.0
2018-Jan-18 00:00N 36°44' W 076°15'0 0.0
2018-Jan-17 23:57N 36°44' W 076°15'  
2018-Jan-12 15:00N 36°54' W 076°21'1 1.8
2018-Jan-12 14:29N 36°55' W 076°20'1 1.7
2018-Jan-12 14:00N 36°54' W 076°20'0 0.0
2018-Jan-12 12:51N 36°54' W 076°20'0 0.0
2018-Jan-12 12:30N 36°54' W 076°20'1 0.1
2018-Jan-12 04:18N 36°54' W 076°21'1 2.4
2018-Jan-12 04:00N 36°53' W 076°20'4 7.7
2018-Jan-12 03:30N 36°50' W 076°18'3 6.9
2018-Jan-12 03:00N 36°47' W 076°18'3 6.5
2018-Jan-12 02:30N 36°44' W 076°16'1 2.2
2018-Jan-12 02:00N 36°44' W 076°15'0 0.0
2018-Jan-12 01:30N 36°44' W 076°15'0 0.0
2018-Jan-12 00:59N 36°44' W 076°15'0 0.0
2018-Jan-12 00:30N 36°44' W 076°15'0 0.0
2018-Jan-12 00:00N 36°44' W 076°15'0 0.0
2018-Jan-11 23:30N 36°44' W 076°15'0 0.0
2018-Jan-11 23:00N 36°44' W 076°15'0 0.0
2018-Jan-11 22:30N 36°44' W 076°15'0 0.0
2018-Jan-11 22:00N 36°44' W 076°15'0 0.0
2018-Jan-11 21:30N 36°44' W 076°15'0 0.0
2018-Jan-11 21:00N 36°44' W 076°15'0 0.0
2018-Jan-11 20:30N 36°44' W 076°15'0 0.0
2018-Jan-11 19:42N 36°44' W 076°15'0 0.0
2018-Jan-11 19:30N 36°44' W 076°15'0 0.0
2018-Jan-11 19:00N 36°44' W 076°15'0 0.0
2018-Jan-11 18:30N 36°44' W 076°15'0 0.0
2018-Jan-11 18:00N 36°44' W 076°15'0 0.0
2018-Jan-11 17:26N 36°44' W 076°15'0 0.0
2018-Jan-11 16:44N 36°44' W 076°15'0 0.0
2018-Jan-11 16:25N 36°44' W 076°15'0 0.0
2018-Jan-11 15:50N 36°44' W 076°15'0 0.0
2018-Jan-11 15:13N 36°44' W 076°15'0 0.0
2018-Jan-11 14:58N 36°44' W 076°15'0 0.0
2018-Jan-11 14:30N 36°44' W 076°15'0 0.0
2018-Jan-11 14:00N 36°44' W 076°15'0 0.0
2018-Jan-11 13:29N 36°44' W 076°15'0 0.0
2018-Jan-10 21:01N 36°44' W 076°15'0 0.0
2018-Jan-10 20:55N 36°44' W 076°15'0 0.0
2018-Jan-10 20:30N 36°44' W 076°15'0 0.0
2018-Jan-10 20:00N 36°44' W 076°15'0 0.1
2018-Jan-10 19:30N 36°44' W 076°15'0 0.1
2018-Jan-10 19:00N 36°44' W 076°15'0 0.0
2018-Jan-10 18:30N 36°44' W 076°15'0 0.0
2018-Jan-10 18:00N 36°44' W 076°15'0 0.0
2018-Jan-10 17:30N 36°44' W 076°15'0 0.0
2018-Jan-10 17:00N 36°44' W 076°15'0 0.0
2018-Jan-10 16:30N 36°44' W 076°15'0 0.0
2018-Jan-10 16:00N 36°44' W 076°15'0 0.0
2018-Jan-10 15:30N 36°44' W 076°15'0 0.0
2018-Jan-10 15:00N 36°44' W 076°15'0 0.0
2018-Jan-10 14:30N 36°44' W 076°15'  

Dump ship's entire track history